Time;durP1;ratioP1;P1;durP2;ratioP2;P2;SDS_P1;SDS_P2;PMS_P1;PMS_P2;Temp;Humidity;BMP_temperature;BMP_pressure;BME280_temperature;BME280_humidity;BME280_pressure;Samples;Min_cycle;Max_cycle;Signal;HPM_P1;HPM_P2
2024/03/12 00:00:15;;;;;;;2.97;2.77;;;9.30;99.90;;;;;;5086097;28;20198;-74
2024/03/12 00:02:44;;;;;;;2.77;2.57;;;9.30;99.90;;;;;;5086634;28;20203;-74
2024/03/12 00:05:13;;;;;;;2.73;2.53;;;9.30;99.90;;;;;;5086048;28;20243;-74
2024/03/12 00:07:41;;;;;;;3.17;2.63;;;9.30;99.90;;;;;;5086728;28;20260;-74
2024/03/12 00:10:09;;;;;;;2.83;2.63;;;9.20;99.90;;;;;;5085762;28;20213;-74
2024/03/12 00:12:38;;;;;;;2.90;2.70;;;9.20;99.90;;;;;;5086098;28;20207;-74
2024/03/12 00:15:06;;;;;;;3.10;2.70;;;9.20;99.90;;;;;;5083752;28;20192;-74
2024/03/12 00:17:33;;;;;;;3.57;3.00;;;9.20;99.90;;;;;;5086223;28;20277;-73
2024/03/12 00:20:05;;;;;;;3.00;2.80;;;9.20;99.90;;;;;;5087997;28;20256;-73
2024/03/12 00:22:33;;;;;;;2.63;2.50;;;9.20;99.90;;;;;;5090198;28;20241;-73
2024/03/12 00:25:01;;;;;;;2.70;2.60;;;9.10;99.90;;;;;;5089994;28;20231;-73
2024/03/12 00:27:27;;;;;;;3.10;2.90;;;9.10;99.90;;;;;;5090086;28;20214;-73
2024/03/12 00:29:56;;;;;;;2.90;2.70;;;9.00;99.90;;;;;;5090379;28;20305;-73
2024/03/12 00:32:23;;;;;;;2.83;2.60;;;9.00;99.90;;;;;;5089864;28;20205;-73
2024/03/12 00:34:51;;;;;;;2.70;2.50;;;8.90;99.90;;;;;;5089695;28;20211;-73
2024/03/12 00:37:20;;;;;;;2.90;2.70;;;8.90;99.90;;;;;;5089788;28;20199;-73
2024/03/12 00:39:47;;;;;;;3.03;2.83;;;8.80;99.90;;;;;;5089556;28;20207;-72
2024/03/12 00:42:15;;;;;;;2.57;2.40;;;8.80;99.90;;;;;;5089769;28;20207;-72
2024/03/12 00:44:42;;;;;;;2.77;2.57;;;8.80;99.90;;;;;;5089354;28;20625;-73
2024/03/12 00:47:10;;;;;;;3.10;2.90;;;8.80;99.90;;;;;;5089739;28;20297;-73
2024/03/12 00:49:37;;;;;;;9.03;2.70;;;8.70;99.90;;;;;;5089376;28;20563;-73
2024/03/12 00:52:05;;;;;;;3.50;3.30;;;8.70;99.90;;;;;;5089874;28;20290;-72
2024/03/12 00:54:35;;;;;;;3.17;2.97;;;8.60;99.90;;;;;;5089372;28;20202;-72
2024/03/12 00:57:05;;;;;;;3.30;3.10;;;8.60;99.90;;;;;;5089162;28;20230;-73
2024/03/12 00:59:32;;;;;;;3.40;3.20;;;8.60;99.90;;;;;;5089263;28;20290;-73
2024/03/12 01:01:59;;;;;;;3.90;3.60;;;8.60;99.90;;;;;;5089592;28;20624;-73
2024/03/12 01:04:27;;;;;;;3.40;3.17;;;8.50;99.90;;;;;;5089171;28;20321;-73
2024/03/12 01:06:55;;;;;;;3.80;3.50;;;8.60;99.90;;;;;;5089232;28;20207;-73
2024/03/12 01:09:21;;;;;;;5.73;3.13;;;8.50;99.90;;;;;;5089066;28;20218;-73
2024/03/12 01:11:48;;;;;;;3.40;3.20;;;8.50;99.90;;;;;;5089447;28;20202;-74
2024/03/12 01:14:17;;;;;;;3.33;3.13;;;8.50;99.90;;;;;;5088948;28;20325;-74
2024/03/12 01:16:45;;;;;;;3.30;3.10;;;8.40;99.90;;;;;;5089278;28;20681;-73
2024/03/12 01:19:12;;;;;;;3.40;3.20;;;8.40;99.90;;;;;;5089025;28;20233;-73
2024/03/12 01:21:40;;;;;;;3.90;3.13;;;8.40;99.90;;;;;;5089027;28;20203;-73
2024/03/12 01:24:07;;;;;;;3.47;3.27;;;8.40;99.90;;;;;;5088836;28;20798;-73
2024/03/12 01:26:34;;;;;;;3.70;3.50;;;8.40;99.90;;;;;;5088516;28;20739;-73
2024/03/12 01:29:03;;;;;;;4.70;3.40;;;8.30;99.90;;;;;;5089066;28;20213;-73
2024/03/12 01:31:31;;;;;;;3.33;3.13;;;8.40;99.90;;;;;;5088616;28;20203;-73
2024/03/12 01:33:58;;;;;;;3.47;3.17;;;8.30;99.90;;;;;;5088944;28;20724;-73
2024/03/12 01:36:34;;;;;;;3.03;2.87;;;8.30;99.90;;;;;;5088706;28;20261;-73
2024/03/12 01:39:04;;;;;;;3.13;2.93;;;8.30;99.90;;;;;;5088324;28;20195;-73
2024/03/12 01:41:34;;;;;;;3.20;2.87;;;8.30;99.90;;;;;;5088175;28;20256;-73
2024/03/12 01:44:03;;;;;;;3.70;3.20;;;8.30;99.90;;;;;;5088661;28;20211;-73
2024/03/12 01:46:31;;;;;;;3.63;3.33;;;8.20;99.90;;;;;;5088088;28;20802;-73
2024/03/12 01:48:58;;;;;;;3.40;3.20;;;8.20;99.90;;;;;;5088881;28;20230;-73
2024/03/12 01:51:26;;;;;;;3.27;3.07;;;8.20;99.90;;;;;;5088612;28;21028;-73
2024/03/12 01:53:53;;;;;;;3.70;3.10;;;8.20;99.90;;;;;;5088261;28;20324;-73
2024/03/12 01:56:25;;;;;;;3.00;2.80;;;8.20;99.90;;;;;;5087376;28;20259;-73
2024/03/12 01:58:51;;;;;;;5.10;3.20;;;8.20;99.90;;;;;;5088489;28;20242;-73
2024/03/12 02:01:20;;;;;;;3.23;3.00;;;8.20;99.90;;;;;;5088257;28;20206;-73
2024/03/12 02:03:50;;;;;;;3.03;2.83;;;8.20;99.90;;;;;;5088703;28;20199;-73
2024/03/12 02:06:17;;;;;;;3.10;2.90;;;8.20;99.90;;;;;;5088078;28;20238;-73
2024/03/12 02:08:44;;;;;;;3.90;3.50;;;8.10;99.90;;;;;;5088353;28;20552;-73
2024/03/12 02:11:11;;;;;;;3.80;3.17;;;8.10;99.90;;;;;;5088037;28;20208;-73
2024/03/12 02:13:40;;;;;;;3.30;3.10;;;8.10;99.90;;;;;;5088070;28;20234;-73
2024/03/12 02:16:08;;;;;;;3.30;3.10;;;8.00;99.90;;;;;;5087698;28;20207;-73
2024/03/12 02:18:34;;;;;;;3.83;3.30;;;8.00;99.90;;;;;;5079535;28;20202;-73
2024/03/12 02:21:00;;;;;;;3.20;3.00;;;7.90;99.90;;;;;;5080805;28;20587;-73
2024/03/12 02:23:37;;;;;;;4.40;3.47;;;7.90;99.90;;;;;;5076129;28;20318;-74
2024/03/12 02:26:04;;;;;;;4.13;3.30;;;7.80;99.90;;;;;;5087267;28;20779;-74
2024/03/12 02:28:32;;;;;;;3.63;3.33;;;7.80;99.90;;;;;;5087635;28;20290;-73
2024/03/12 02:30:59;;;;;;;3.80;3.50;;;7.80;99.90;;;;;;5087464;28;20207;-74
2024/03/12 02:33:26;;;;;;;3.10;2.90;;;7.70;99.90;;;;;;5087430;28;20213;-73
2024/03/12 02:35:53;;;;;;;3.20;3.00;;;7.70;99.90;;;;;;5087312;28;20682;-73
2024/03/12 02:38:20;;;;;;;4.53;3.67;;;7.70;99.90;;;;;;5087317;28;20202;-72
2024/03/12 02:40:49;;;;;;;3.60;3.30;;;7.80;99.90;;;;;;5086750;28;20639;-72
2024/03/12 02:43:16;;;;;;;3.80;3.40;;;7.80;99.90;;;;;;5086811;28;20198;-72
2024/03/12 02:45:43;;;;;;;3.80;3.40;;;7.70;99.90;;;;;;5086875;28;20218;-72
2024/03/12 02:48:12;;;;;;;4.27;3.63;;;7.70;99.90;;;;;;5087402;28;20261;-72
2024/03/12 02:50:39;;;;;;;4.03;3.73;;;7.70;99.90;;;;;;5087547;28;20216;-72
2024/03/12 02:53:07;;;;;;;4.53;3.60;;;7.70;99.90;;;;;;5085872;28;20238;-72
2024/03/12 02:55:35;;;;;;;3.73;3.13;;;7.70;99.90;;;;;;5087283;28;20202;-73
2024/03/12 02:58:04;;;;;;;3.93;3.60;;;7.70;99.90;;;;;;5068488;28;20684;-72
2024/03/12 03:00:31;;;;;;;3.93;3.63;;;7.70;99.90;;;;;;5081102;28;20235;-73
2024/03/12 03:02:58;;;;;;;3.77;3.40;;;7.70;99.90;;;;;;5085785;28;20286;-72
2024/03/12 03:05:25;;;;;;;3.33;3.13;;;7.70;99.90;;;;;;5086695;28;21155;-73
2024/03/12 03:07:52;;;;;;;3.90;3.60;;;7.60;99.90;;;;;;5086640;28;20851;-72
2024/03/12 03:10:19;;;;;;;3.50;3.30;;;7.70;99.90;;;;;;5086298;28;20640;-72
2024/03/12 03:12:46;;;;;;;3.60;3.30;;;7.70;99.90;;;;;;5086994;28;20264;-72
2024/03/12 03:15:14;;;;;;;3.47;3.17;;;7.70;99.90;;;;;;5086705;28;20665;-72
2024/03/12 03:17:42;;;;;;;3.43;3.23;;;7.70;99.90;;;;;;5086726;28;20291;-74
2024/03/12 03:20:14;;;;;;;5.13;3.00;;;7.70;99.90;;;;;;5086817;28;20579;-75
2024/03/12 03:22:41;;;;;;;3.57;3.27;;;7.80;99.90;;;;;;5086988;28;20278;-73
2024/03/12 03:25:11;;;;;;;3.50;3.23;;;7.80;99.90;;;;;;5086491;28;20237;-73
2024/03/12 03:27:38;;;;;;;3.57;3.37;;;7.80;99.90;;;;;;5086906;28;20244;-72
2024/03/12 03:30:09;;;;;;;4.13;3.73;;;7.80;99.90;;;;;;5086981;28;20388;-72
2024/03/12 03:32:41;;;;;;;3.40;3.20;;;7.80;99.90;;;;;;5083869;28;20202;-72
2024/03/12 03:35:13;;;;;;;3.80;3.50;;;7.80;99.90;;;;;;5084837;28;20218;-72
2024/03/12 03:37:40;;;;;;;3.70;3.40;;;7.80;99.90;;;;;;5085085;28;20211;-73
2024/03/12 03:40:10;;;;;;;3.20;3.00;;;7.80;99.90;;;;;;5084534;28;20249;-72
2024/03/12 03:42:37;;;;;;;3.57;3.27;;;7.80;99.90;;;;;;5084704;28;20218;-72
2024/03/12 03:45:05;;;;;;;3.20;3.00;;;7.80;99.90;;;;;;5085016;28;20669;-72
2024/03/12 03:47:34;;;;;;;3.50;3.30;;;7.80;99.90;;;;;;5084484;28;20622;-72
2024/03/12 03:50:07;;;;;;;3.17;3.00;;;7.80;99.90;;;;;;5084679;28;20203;-72
2024/03/12 03:52:34;;;;;;;2.80;2.70;;;7.80;99.90;;;;;;5084861;28;20230;-72
2024/03/12 03:55:01;;;;;;;3.57;3.27;;;7.80;99.90;;;;;;5088690;28;20294;-72
2024/03/12 03:57:28;;;;;;;3.63;3.43;;;7.80;99.90;;;;;;5089025;28;20238;-72
2024/03/12 03:59:56;;;;;;;3.70;3.40;;;7.80;99.90;;;;;;5088593;28;20222;-73
2024/03/12 04:02:23;;;;;;;3.60;3.40;;;7.70;99.90;;;;;;5088847;28;20253;-73
2024/03/12 04:04:50;;;;;;;3.30;3.10;;;7.70;99.90;;;;;;5087115;28;20207;-72
2024/03/12 04:07:19;;;;;;;3.17;2.97;;;7.60;99.90;;;;;;5089693;28;20711;-72
2024/03/12 04:09:47;;;;;;;3.50;3.30;;;7.60;99.90;;;;;;5089910;28;20767;-73
2024/03/12 04:12:14;;;;;;;3.57;3.37;;;7.60;99.90;;;;;;5090259;28;20217;-73
2024/03/12 04:14:41;;;;;;;3.43;3.23;;;7.60;99.90;;;;;;5089793;28;20241;-73
2024/03/12 04:17:08;;;;;;;3.40;3.10;;;7.60;99.90;;;;;;5089460;28;20219;-73
2024/03/12 04:19:35;;;;;;;3.63;3.33;;;7.60;99.90;;;;;;5089885;28;20666;-73
2024/03/12 04:22:04;;;;;;;4.23;3.93;;;7.60;99.90;;;;;;5090236;28;20234;-72
2024/03/12 04:24:32;;;;;;;4.87;4.50;;;7.60;99.90;;;;;;5089673;28;20203;-73
2024/03/12 04:26:59;;;;;;;4.77;4.37;;;7.70;99.90;;;;;;5089925;28;20245;-73
2024/03/12 04:29:26;;;;;;;4.37;4.07;;;7.70;99.90;;;;;;5090021;28;20211;-73
2024/03/12 04:31:54;;;;;;;4.13;3.73;;;7.70;99.90;;;;;;5089972;28;20305;-73
2024/03/12 04:34:21;;;;;;;3.67;3.37;;;7.70;99.90;;;;;;5089931;28;20234;-73
2024/03/12 04:36:48;;;;;;;3.90;3.63;;;7.70;99.90;;;;;;5089674;28;20806;-73
2024/03/12 04:39:30;;;;;;;3.40;3.20;;;7.70;99.90;;;;;;5089972;28;20202;-73
2024/03/12 04:41:59;;;;;;;3.50;3.27;;;7.70;99.90;;;;;;5089697;28;20195;-73
2024/03/12 04:44:26;;;;;;;3.63;3.40;;;7.70;99.90;;;;;;5089093;28;20203;-73
2024/03/12 04:46:55;;;;;;;3.40;3.20;;;7.70;99.90;;;;;;5089516;28;20236;-73
2024/03/12 04:49:22;;;;;;;3.90;3.50;;;7.80;99.90;;;;;;5089655;28;20234;-72
2024/03/12 04:51:50;;;;;;;3.97;3.20;;;7.80;99.90;;;;;;5089276;28;20289;-72
2024/03/12 04:54:18;;;;;;;3.27;3.07;;;7.80;99.90;;;;;;5089230;28;20215;-73
2024/03/12 04:56:44;;;;;;;3.80;3.50;;;7.80;99.90;;;;;;5080945;28;20604;-73
2024/03/12 04:59:14;;;;;;;3.60;3.40;;;7.70;99.90;;;;;;5069177;28;20748;-72
2024/03/12 05:01:44;;;;;;;3.13;2.93;;;7.70;99.90;;;;;;5072065;28;20268;-73
2024/03/12 05:04:12;;;;;;;3.40;3.20;;;7.70;99.90;;;;;;5089017;28;20289;-73
2024/03/12 05:06:39;;;;;;;3.47;3.27;;;7.70;99.90;;;;;;5088752;28;20238;-73
2024/03/12 05:09:06;;;;;;;3.60;3.33;;;7.70;99.90;;;;;;5088992;28;20206;-73
2024/03/12 05:11:33;;;;;;;3.50;3.30;;;7.70;99.90;;;;;;5088648;28;20567;-73
2024/03/12 05:14:00;;;;;;;3.70;3.50;;;7.70;99.90;;;;;;5088663;28;20230;-73
2024/03/12 05:16:29;;;;;;;3.43;3.23;;;7.60;99.90;;;;;;5088569;28;20256;-73
2024/03/12 05:18:56;;;;;;;3.80;3.50;;;7.60;99.90;;;;;;5088593;28;20677;-73
2024/03/12 05:21:24;;;;;;;3.97;3.67;;;7.70;99.90;;;;;;5088553;28;20238;-73
2024/03/12 05:23:50;;;;;;;3.67;3.40;;;7.70;99.90;;;;;;5088658;28;20261;-73
2024/03/12 05:26:18;;;;;;;3.90;3.70;;;7.70;99.90;;;;;;5088129;28;20252;-73
2024/03/12 05:28:45;;;;;;;4.17;3.80;;;7.70;99.90;;;;;;5088770;28;20207;-73
2024/03/12 05:31:20;;;;;;;4.23;3.83;;;7.70;99.90;;;;;;5088772;28;20628;-73
2024/03/12 05:33:49;;;;;;;4.03;3.77;;;7.70;99.90;;;;;;5088822;28;20197;-72
2024/03/12 05:36:20;;;;;;;3.63;3.43;;;7.70;99.90;;;;;;5088705;28;20238;-73
2024/03/12 05:38:55;;;;;;;4.20;3.90;;;7.70;99.90;;;;;;5088588;28;20199;-73
2024/03/12 05:41:28;;;;;;;5.10;4.70;;;7.70;99.90;;;;;;5087816;28;20301;-73
2024/03/12 05:49:25;;;;;;;3.90;3.60;;;7.70;99.90;;;;;;5088098;28;20297;-73
2024/03/12 05:51:55;;;;;;;4.13;3.83;;;7.70;99.90;;;;;;5088526;28;20286;-73
2024/03/12 05:54:22;;;;;;;4.10;3.80;;;7.70;99.90;;;;;;5088294;28;20290;-73
2024/03/12 05:56:50;;;;;;;3.83;3.57;;;7.70;99.90;;;;;;5088340;28;20313;-73
2024/03/12 05:59:18;;;;;;;3.73;3.53;;;7.60;99.90;;;;;;5088068;28;20207;-73
2024/03/12 06:01:45;;;;;;;3.70;3.43;;;7.60;99.90;;;;;;5088169;28;20229;-73
2024/03/12 06:04:11;;;;;;;4.20;3.93;;;7.60;99.90;;;;;;5085720;28;20206;-73
2024/03/12 06:06:40;;;;;;;4.33;3.90;;;7.60;99.90;;;;;;5086691;28;20329;-73
2024/03/12 06:09:09;;;;;;;3.93;3.73;;;7.60;99.90;;;;;;5087905;28;20245;-73
2024/03/12 06:11:36;;;;;;;3.57;3.37;;;7.60;99.90;;;;;;5087545;28;20210;-73
2024/03/12 06:14:05;;;;;;;3.70;3.50;;;7.70;99.90;;;;;;5087618;28;20287;-73
2024/03/12 06:16:35;;;;;;;3.80;3.50;;;7.70;99.90;;;;;;5087113;28;20379;-73
2024/03/12 06:19:02;;;;;;;3.80;3.50;;;7.60;99.90;;;;;;5087697;28;20214;-73
2024/03/12 06:21:29;;;;;;;3.73;3.40;;;7.60;99.90;;;;;;5087751;28;20607;-73
2024/03/12 06:23:58;;;;;;;3.90;3.60;;;7.70;99.90;;;;;;5087616;28;20246;-73
2024/03/12 06:26:25;;;;;;;4.33;4.03;;;7.60;99.90;;;;;;5087284;28;20234;-73
2024/03/12 06:28:52;;;;;;;4.00;3.70;;;7.70;99.90;;;;;;5087721;28;20202;-73
2024/03/12 06:31:19;;;;;;;4.03;3.73;;;7.70;99.90;;;;;;5087480;28;20209;-72
2024/03/12 06:33:46;;;;;;;3.97;3.70;;;7.70;99.90;;;;;;5087644;28;20205;-73
2024/03/12 06:36:15;;;;;;;4.20;3.90;;;7.80;99.90;;;;;;5087411;28;20263;-73
2024/03/12 06:38:42;;;;;;;3.67;3.37;;;7.80;99.90;;;;;;5087480;28;20297;-72
2024/03/12 06:41:11;;;;;;;4.20;3.63;;;7.80;99.90;;;;;;5087532;28;20293;-72
2024/03/12 06:43:40;;;;;;;4.30;3.90;;;7.90;99.90;;;;;;5087497;28;20649;-73
2024/03/12 06:46:07;;;;;;;3.93;3.67;;;7.90;99.90;;;;;;5087147;28;20645;-72
2024/03/12 06:48:35;;;;;;;3.93;3.73;;;7.90;99.90;;;;;;5087631;28;20207;-73
2024/03/12 06:51:04;;;;;;;4.20;3.83;;;7.90;99.90;;;;;;5087411;28;20207;-73
2024/03/12 06:53:30;;;;;;;4.53;4.23;;;7.90;99.90;;;;;;5087509;28;20293;-73
2024/03/12 06:55:58;;;;;;;4.30;4.00;;;8.00;99.90;;;;;;5085201;28;20241;-72
2024/03/12 06:58:27;;;;;;;4.40;4.10;;;8.00;99.90;;;;;;5066876;28;20246;-72
2024/03/12 07:00:55;;;;;;;4.63;4.23;;;8.00;99.90;;;;;;5067054;28;20269;-72
2024/03/12 07:03:24;;;;;;;4.07;3.77;;;8.00;99.90;;;;;;5066871;28;20207;-73
2024/03/12 07:05:52;;;;;;;4.43;4.13;;;8.10;99.90;;;;;;5066530;28;20207;-73
2024/03/12 07:08:21;;;;;;;4.63;4.23;;;8.10;99.90;;;;;;5066870;28;20634;-73
2024/03/12 07:10:50;;;;;;;4.50;4.20;;;8.10;99.90;;;;;;5066778;28;20214;-73
2024/03/12 07:13:20;;;;;;;4.70;4.40;;;8.10;99.90;;;;;;5066521;28;20239;-73
2024/03/12 07:15:49;;;;;;;4.50;4.20;;;8.10;99.90;;;;;;5066801;28;20219;-72
2024/03/12 07:18:18;;;;;;;6.43;4.53;;;8.10;99.90;;;;;;5066683;28;20203;-72
2024/03/12 07:20:45;;;;;;;5.40;5.00;;;8.10;99.90;;;;;;5066781;28;20211;-72
2024/03/12 07:23:13;;;;;;;4.33;4.00;;;8.20;99.90;;;;;;5066651;28;20542;-72
2024/03/12 07:25:41;;;;;;;5.20;4.80;;;8.20;99.90;;;;;;5066220;28;20203;-72
2024/03/12 07:28:08;;;;;;;5.77;4.70;;;8.20;99.90;;;;;;5068431;28;20235;-72
2024/03/12 07:30:35;;;;;;;5.30;4.80;;;8.30;99.90;;;;;;5073178;28;20761;-72
2024/03/12 07:33:04;;;;;;;5.00;4.53;;;8.40;99.90;;;;;;5078566;28;20301;-72
2024/03/12 07:35:33;;;;;;;5.60;4.50;;;8.40;99.90;;;;;;5092881;28;20868;-72
2024/03/12 07:38:00;;;;;;;5.80;4.83;;;8.50;99.90;;;;;;5093231;28;20412;-72
2024/03/12 07:40:27;;;;;;;5.00;4.60;;;8.60;99.90;;;;;;5092915;28;20244;-72
2024/03/12 07:42:54;;;;;;;5.40;4.60;;;8.60;99.90;;;;;;5093722;28;20290;-72
2024/03/12 07:45:24;;;;;;;4.57;4.23;;;8.70;99.90;;;;;;5093610;28;20289;-72
2024/03/12 07:47:51;;;;;;;5.20;4.80;;;8.70;99.90;;;;;;5093487;28;20635;-72
2024/03/12 07:50:21;;;;;;;5.03;4.63;;;8.70;99.90;;;;;;5093235;28;20213;-72
2024/03/12 07:52:48;;;;;;;5.20;4.80;;;8.80;99.90;;;;;;5093652;28;20289;-72
2024/03/12 07:55:15;;;;;;;9.33;5.20;;;8.80;99.90;;;;;;5093091;28;20241;-72
2024/03/12 07:57:42;;;;;;;15.43;5.50;;;8.90;99.90;;;;;;5078068;28;20322;-71
2024/03/12 08:00:14;;;;;;;9.43;4.93;;;8.90;99.90;;;;;;5093234;28;20601;-72
2024/03/12 08:02:41;;;;;;;5.17;4.70;;;9.00;99.90;;;;;;5093242;28;20187;-72
2024/03/12 08:05:08;;;;;;;4.93;4.47;;;9.00;99.90;;;;;;5093102;28;20301;-72
2024/03/12 08:07:36;;;;;;;5.03;4.70;;;9.10;99.90;;;;;;5093091;28;20597;-72
2024/03/12 08:10:05;;;;;;;6.20;5.60;;;9.10;99.90;;;;;;5092934;28;20305;-71
2024/03/12 08:12:32;;;;;;;5.30;4.70;;;9.20;99.90;;;;;;5093052;28;20203;-72
2024/03/12 08:14:59;;;;;;;5.43;5.03;;;9.20;99.90;;;;;;5093257;28;20278;-72
2024/03/12 08:17:28;;;;;;;5.50;5.00;;;9.20;99.90;;;;;;5092700;28;20297;-73
2024/03/12 08:19:55;;;;;;;5.27;4.87;;;9.30;99.90;;;;;;5093165;28;20255;-72
2024/03/12 08:22:22;;;;;;;5.30;4.90;;;9.30;99.90;;;;;;5092852;28;20229;-73
2024/03/12 08:24:51;;;;;;;5.63;5.10;;;9.30;99.90;;;;;;5092887;28;20309;-72
2024/03/12 08:27:18;;;;;;;4.83;4.43;;;9.30;99.90;;;;;;5092544;28;20313;-72
2024/03/12 08:29:45;;;;;;;5.07;4.57;;;9.40;99.90;;;;;;5092631;28;20218;-72
2024/03/12 08:32:13;;;;;;;5.20;4.63;;;9.50;99.90;;;;;;5092651;28;20276;-72
2024/03/12 08:34:40;;;;;;;5.50;5.10;;;9.50;99.90;;;;;;5092925;28;20238;-72
2024/03/12 08:37:09;;;;;;;5.10;4.70;;;9.60;99.90;;;;;;5092861;28;20217;-72
2024/03/12 08:39:37;;;;;;;4.70;4.40;;;9.60;99.90;;;;;;5090849;28;20609;-72
2024/03/12 08:42:09;;;;;;;4.73;4.30;;;9.60;99.90;;;;;;5090080;28;20308;-72
2024/03/12 08:44:36;;;;;;;5.00;4.60;;;9.70;99.90;;;;;;5089561;28;20199;-73
2024/03/12 08:47:03;;;;;;;5.20;4.80;;;9.70;99.90;;;;;;5089713;28;20227;-73
2024/03/12 08:49:30;;;;;;;4.77;4.20;;;9.80;99.90;;;;;;5089704;28;20291;-72
2024/03/12 08:51:57;;;;;;;5.33;4.23;;;9.80;99.90;;;;;;5089695;28;20318;-72
2024/03/12 08:54:24;;;;;;;5.40;4.47;;;9.80;99.90;;;;;;5089534;28;20301;-72
2024/03/12 08:56:51;;;;;;;6.10;4.90;;;9.90;99.90;;;;;;5089005;28;20313;-72
2024/03/12 08:59:20;;;;;;;4.90;4.40;;;10.00;99.90;;;;;;5089621;28;20294;-72
2024/03/12 09:01:48;;;;;;;10.97;5.10;;;10.10;99.90;;;;;;5089132;28;20203;-72
2024/03/12 09:04:15;;;;;;;5.10;4.70;;;10.10;99.90;;;;;;5089396;28;20265;-72
2024/03/12 09:06:42;;;;;;;8.10;4.50;;;10.20;99.90;;;;;;5089281;28;20206;-73
2024/03/12 09:09:11;;;;;;;4.60;4.20;;;10.20;99.90;;;;;;5089365;28;20213;-73
2024/03/12 09:11:38;;;;;;;4.80;4.40;;;10.30;99.90;;;;;;5089063;28;20203;-72
2024/03/12 09:14:06;;;;;;;4.23;3.80;;;10.30;99.90;;;;;;5088960;28;20238;-72
2024/03/12 09:16:35;;;;;;;5.60;3.90;;;10.30;99.90;;;;;;5089062;28;20230;-73
2024/03/12 09:19:02;;;;;;;12.87;5.00;;;10.40;99.90;;;;;;5089177;28;20242;-72
2024/03/12 09:21:30;;;;;;;6.53;4.47;;;10.40;99.90;;;;;;5088957;28;20225;-72
2024/03/12 09:23:58;;;;;;;4.17;3.87;;;10.40;99.90;;;;;;5089165;28;20280;-72
2024/03/12 09:26:25;;;;;;;4.80;4.07;;;10.40;99.90;;;;;;5088264;28;20210;-73
2024/03/12 09:28:52;;;;;;;4.73;4.00;;;10.50;99.90;;;;;;5088972;28;20875;-73
2024/03/12 09:31:19;;;;;;;4.60;4.20;;;10.50;99.90;;;;;;5088431;28;20199;-72
2024/03/12 09:33:47;;;;;;;3.90;3.60;;;10.60;99.90;;;;;;5088873;28;20210;-72
2024/03/12 09:36:15;;;;;;;5.33;3.80;;;10.70;99.90;;;;;;5088351;28;21075;-72
2024/03/12 09:38:43;;;;;;;4.83;3.70;;;10.70;99.90;;;;;;5088589;28;20225;-72
2024/03/12 09:41:16;;;;;;;6.77;4.20;;;10.80;99.90;;;;;;5088745;28;20241;-72
2024/03/12 09:43:44;;;;;;;4.53;3.70;;;11.00;99.90;;;;;;5088354;28;20564;-73
2024/03/12 09:46:12;;;;;;;4.23;3.90;;;11.00;99.90;;;;;;5088536;28;20207;-72
2024/03/12 09:48:42;;;;;;;3.67;3.10;;;11.00;99.90;;;;;;5088497;28;20241;-72
2024/03/12 09:51:12;;;;;;;3.73;3.40;;;11.00;99.90;;;;;;5087923;28;20733;-72
2024/03/12 09:53:41;;;;;;;5.67;3.37;;;11.10;99.90;;;;;;5088709;28;20206;-72
2024/03/12 09:56:08;;;;;;;9.70;8.20;;;11.20;99.90;;;;;;5084767;28;20639;-72
2024/03/12 09:58:35;;;;;;;7.97;4.83;;;11.30;99.90;;;;;;5068120;28;20209;-72
2024/03/12 10:01:03;;;;;;;4.30;3.50;;;11.40;99.90;;;;;;5068243;28;20211;-72
2024/03/12 10:03:31;;;;;;;4.43;3.40;;;11.50;99.90;;;;;;5067966;28;20207;-72
2024/03/12 10:05:58;;;;;;;6.13;3.40;;;11.50;99.90;;;;;;5067962;28;20206;-72
2024/03/12 10:08:29;;;;;;;3.37;3.17;;;11.60;99.90;;;;;;5067609;28;20331;-72
2024/03/12 10:10:56;;;;;;;3.90;3.70;;;11.60;99.90;;;;;;5067751;28;20191;-73
2024/03/12 10:13:23;;;;;;;3.47;3.10;;;11.70;99.90;;;;;;5067625;28;20235;-72
2024/03/12 10:15:52;;;;;;;5.03;3.57;;;11.80;99.90;;;;;;5067700;28;20654;-72
2024/03/12 10:18:20;;;;;;;3.70;3.50;;;12.00;99.90;;;;;;5067808;28;20208;-72
2024/03/12 10:20:50;;;;;;;3.70;3.40;;;12.20;99.90;;;;;;5067711;28;20696;-73
2024/03/12 10:23:18;;;;;;;3.43;3.20;;;12.30;99.90;;;;;;5085141;28;20206;-72
2024/03/12 10:25:48;;;;;;;7.13;3.63;;;12.40;99.90;;;;;;5087688;28;20634;-72
2024/03/12 10:28:18;;;;;;;2.97;2.77;;;12.50;99.90;;;;;;5087993;28;20223;-73
2024/03/12 10:30:46;;;;;;;3.27;3.00;;;12.70;99.90;;;;;;5088360;28;20211;-73
2024/03/12 10:33:17;;;;;;;3.30;3.00;;;12.70;99.90;;;;;;5087914;28;20211;-72
2024/03/12 10:35:45;;;;;;;3.40;3.10;;;12.90;99.90;;;;;;5087730;28;20728;-72
2024/03/12 10:38:25;;;;;;;3.47;3.17;;;13.10;99.90;;;;;;5087915;28;20203;-72
2024/03/12 10:40:55;;;;;;;3.17;2.90;;;13.30;99.90;;;;;;5087442;28;20541;-72
2024/03/12 10:43:24;;;;;;;3.20;2.90;;;13.30;99.90;;;;;;5088002;28;20207;-72
2024/03/12 10:45:51;;;;;;;3.23;2.93;;;13.60;99.90;;;;;;5087959;28;20221;-73
2024/03/12 10:48:19;;;;;;;4.63;3.43;;;13.80;99.90;;;;;;5087436;28;20292;-72
2024/03/12 10:50:48;;;;;;;3.50;3.20;;;13.90;99.90;;;;;;5087388;28;20214;-72
2024/03/12 10:53:16;;;;;;;3.20;3.00;;;13.90;99.90;;;;;;5087422;28;20213;-72
2024/03/12 10:55:43;;;;;;;5.10;3.23;;;14.00;99.90;;;;;;5086741;28;20970;-72
2024/03/12 10:58:15;;;;;;;3.23;2.93;;;14.00;99.90;;;;;;5086909;28;20674;-72
2024/03/12 11:00:44;;;;;;;3.27;3.03;;;14.10;99.90;;;;;;5087607;28;20293;-73
2024/03/12 11:03:15;;;;;;;3.67;3.37;;;14.20;99.90;;;;;;5086777;28;20226;-72
2024/03/12 11:05:44;;;;;;;3.73;3.40;;;14.50;99.90;;;;;;5087655;28;20215;-72
2024/03/12 11:08:13;;;;;;;4.07;3.27;;;14.70;99.90;;;;;;5087034;28;20226;-72
2024/03/12 11:10:42;;;;;;;4.03;3.53;;;14.80;99.90;;;;;;5087055;28;20313;-72
2024/03/12 11:13:09;;;;;;;4.17;3.53;;;14.80;99.90;;;;;;5086976;28;20250;-72
2024/03/12 11:15:40;;;;;;;4.50;3.77;;;14.90;99.90;;;;;;5087207;28;20298;-72
2024/03/12 11:18:07;;;;;;;3.97;3.67;;;15.00;99.90;;;;;;5086768;28;20692;-72
2024/03/12 11:20:39;;;;;;;4.23;3.83;;;15.10;99.90;;;;;;5087182;28;20230;-72
2024/03/12 11:23:06;;;;;;;3.70;3.40;;;15.30;99.90;;;;;;5086973;28;20281;-73
2024/03/12 11:25:43;;;;;;;3.80;3.50;;;15.30;99.90;;;;;;5087116;28;20598;-72
2024/03/12 11:28:23;;;;;;;3.87;3.57;;;15.10;99.90;;;;;;5067125;28;20276;-72
2024/03/12 11:31:01;;;;;;;3.73;3.40;;;14.90;99.90;;;;;;5067016;28;20235;-71
2024/03/12 11:33:46;;;;;;;3.50;3.30;;;15.10;99.90;;;;;;5066512;28;20241;-71
2024/03/12 11:36:20;;;;;;;3.50;3.20;;;15.00;99.90;;;;;;5075773;28;20644;-72
2024/03/12 11:38:48;;;;;;;6.77;3.70;;;15.10;99.90;;;;;;5087000;28;20278;-71
2024/03/12 11:41:16;;;;;;;3.63;3.33;;;15.30;99.90;;;;;;5086472;28;20238;-72
2024/03/12 11:43:43;;;;;;;3.80;3.40;;;15.40;99.90;;;;;;5087075;28;20243;-72
2024/03/12 11:46:16;;;;;;;4.20;3.90;;;15.40;99.90;;;;;;5086924;28;20210;-73
2024/03/12 11:48:45;;;;;;;4.40;3.70;;;15.30;99.90;;;;;;5086555;28;20752;-72
2024/03/12 11:51:13;;;;;;;4.83;3.60;;;15.30;99.90;;;;;;5086716;28;20206;-72
2024/03/12 11:53:41;;;;;;;3.83;3.40;;;15.30;99.90;;;;;;5086683;28;20210;-73
2024/03/12 11:56:15;;;;;;;4.20;3.80;;;15.30;99.90;;;;;;5086279;28;20254;-73
2024/03/12 11:58:46;;;;;;;4.23;3.83;;;15.20;99.90;;;;;;5086663;28;20195;-72
2024/03/12 12:01:19;;;;;;;3.50;3.20;;;15.20;99.90;;;;;;5086644;28;20203;-72
2024/03/12 12:03:49;;;;;;;4.47;4.13;;;15.00;99.90;;;;;;5086634;28;20196;-72
2024/03/12 12:06:19;;;;;;;4.33;3.93;;;14.90;99.90;;;;;;5086108;28;20669;-72
2024/03/12 12:08:47;;;;;;;4.20;3.80;;;14.80;99.90;;;;;;5086214;28;20229;-72
2024/03/12 12:11:16;;;;;;;4.13;3.83;;;14.90;99.90;;;;;;5085989;28;20207;-72
2024/03/12 12:13:43;;;;;;;4.63;4.23;;;14.80;99.90;;;;;;5085905;28;20308;-73
2024/03/12 12:16:14;;;;;;;4.93;3.83;;;14.80;99.90;;;;;;5088669;28;20202;-73
2024/03/12 12:18:43;;;;;;;4.33;3.80;;;14.70;99.90;;;;;;5090371;28;20279;-71
2024/03/12 12:21:12;;;;;;;4.87;3.67;;;14.60;99.90;;;;;;5090051;28;20293;-71
2024/03/12 12:23:39;;;;;;;4.40;4.00;;;14.70;99.90;;;;;;5090522;28;20210;-71
2024/03/12 12:26:11;;;;;;;4.23;3.40;;;14.70;99.90;;;;;;5089634;28;20585;-71
2024/03/12 12:28:39;;;;;;;5.20;3.50;;;15.00;99.90;;;;;;5090191;28;20305;-71
2024/03/12 12:31:09;;;;;;;3.90;3.50;;;15.10;99.90;;;;;;5089955;28;20211;-71
2024/03/12 12:33:38;;;;;;;3.67;3.33;;;15.10;99.90;;;;;;5089903;28;20681;-71
2024/03/12 12:36:11;;;;;;;5.37;3.40;;;15.10;99.90;;;;;;5090039;28;20202;-71
2024/03/12 12:38:38;;;;;;;3.40;2.90;;;15.20;99.90;;;;;;5089897;28;20191;-72
2024/03/12 12:41:08;;;;;;;4.87;3.33;;;15.10;99.90;;;;;;5089420;28;20757;-72
2024/03/12 12:43:35;;;;;;;3.93;3.27;;;15.10;99.90;;;;;;5089516;28;20589;-71
2024/03/12 12:46:05;;;;;;;5.10;3.87;;;15.10;99.90;;;;;;5088543;28;20243;-71
2024/03/12 12:48:34;;;;;;;5.70;3.67;;;15.00;99.90;;;;;;5089415;28;20750;-72
2024/03/12 12:51:03;;;;;;;3.57;3.27;;;15.00;99.90;;;;;;5089806;28;20293;-71
2024/03/12 12:53:31;;;;;;;3.90;3.50;;;15.00;99.90;;;;;;5089148;28;20211;-71
2024/03/12 12:56:01;;;;;;;3.90;3.60;;;14.80;99.90;;;;;;5087301;28;20715;-71
2024/03/12 12:58:31;;;;;;;4.03;3.73;;;14.80;99.90;;;;;;5070056;28;20215;-72
2024/03/12 13:01:02;;;;;;;4.07;3.77;;;14.90;99.90;;;;;;5069350;28;20200;-71
2024/03/12 13:03:34;;;;;;;4.50;4.07;;;14.90;99.90;;;;;;5068985;28;20207;-71